createdAt,value
2018-05-15T00:00:13.699Z,14.23
2018-05-15T00:01:15.093Z,14.19
2018-05-15T00:02:16.489Z,14.19
2018-05-15T00:03:17.882Z,14.19
2018-05-15T00:04:19.264Z,14.20
2018-05-15T00:05:20.653Z,14.06
2018-05-15T00:06:22.038Z,14.09
2018-05-15T00:07:23.431Z,14.04
2018-05-15T00:08:24.815Z,14.12
2018-05-15T00:09:26.198Z,14.16
2018-05-15T00:10:27.585Z,14.02
2018-05-15T00:11:28.973Z,14.06
2018-05-15T00:12:31.098Z,14.09
2018-05-15T00:13:32.484Z,14.05
2018-05-15T00:14:33.866Z,14.04
2018-05-15T00:15:35.261Z,14.04
2018-05-15T00:16:36.648Z,13.94
2018-05-15T00:17:38.026Z,13.96
2018-05-15T00:18:39.412Z,14.01
2018-05-15T00:19:41.545Z,13.98
2018-05-15T00:20:42.112Z,13.93
2018-05-15T00:21:43.505Z,13.98
2018-05-15T00:22:44.885Z,13.94
2018-05-15T00:23:46.278Z,13.99
2018-05-15T00:24:47.673Z,13.93
2018-05-15T00:25:49.062Z,13.96
2018-05-15T00:26:50.451Z,13.91
2018-05-15T00:27:51.849Z,13.94
2018-05-15T00:28:53.253Z,13.94
2018-05-15T00:29:54.653Z,13.99
2018-05-15T00:30:56.030Z,13.91
2018-05-15T00:31:57.437Z,13.87
2018-05-15T00:32:58.803Z,13.87
2018-05-15T00:34:00.235Z,13.96
2018-05-15T00:35:01.625Z,13.90
2018-05-15T00:36:03.007Z,13.93
2018-05-15T00:37:04.412Z,13.90
2018-05-15T00:38:05.811Z,13.86
2018-05-15T00:39:07.209Z,13.84
2018-05-15T00:40:08.611Z,13.86
2018-05-15T00:41:10.022Z,13.81
2018-05-15T00:42:11.420Z,13.81
2018-05-15T00:43:12.863Z,13.76
2018-05-15T00:44:14.313Z,13.76
2018-05-15T00:45:16.229Z,13.86
2018-05-15T00:46:17.677Z,13.76
2018-05-15T00:47:19.071Z,13.76
2018-05-15T00:48:20.472Z,13.66
2018-05-15T00:49:21.874Z,13.76
2018-05-15T00:50:23.268Z,13.72
2018-05-15T00:51:24.673Z,13.66
2018-05-15T00:52:26.064Z,13.66
2018-05-15T00:53:27.498Z,13.71
2018-05-15T00:54:28.914Z,13.71
2018-05-15T00:55:30.308Z,13.62
2018-05-15T00:56:31.700Z,13.61
2018-05-15T00:57:33.104Z,13.66
2018-05-15T00:58:34.482Z,13.55
2018-05-15T00:59:35.880Z,13.62
2018-05-15T01:00:37.275Z,13.61
2018-05-15T01:01:38.678Z,13.51
2018-05-15T01:02:40.063Z,13.54
2018-05-15T01:03:41.451Z,13.57
2018-05-15T01:04:42.837Z,13.51
2018-05-15T01:05:44.241Z,13.53
2018-05-15T01:06:45.633Z,13.46
2018-05-15T01:07:47.029Z,13.55
2018-05-15T01:08:48.436Z,13.50
2018-05-15T01:09:50.679Z,13.50
2018-05-15T01:10:52.062Z,13.46
2018-05-15T01:11:53.449Z,13.50
2018-05-15T01:12:54.841Z,13.48
2018-05-15T01:13:56.241Z,13.44
2018-05-15T01:14:58.547Z,13.39
2018-05-15T01:15:59.953Z,13.41
2018-05-15T01:17:01.329Z,13.44
2018-05-15T01:18:02.715Z,13.43
2018-05-15T01:19:04.111Z,13.41
2018-05-15T01:20:05.498Z,13.41
2018-05-15T01:21:06.882Z,13.39
2018-05-15T01:22:08.269Z,13.43
2018-05-15T01:23:09.655Z,13.43
2018-05-15T01:24:11.045Z,13.47
2018-05-15T01:25:12.433Z,13.43
2018-05-15T01:26:13.811Z,13.41
2018-05-15T01:27:15.198Z,13.44
2018-05-15T01:28:17.059Z,13.39
2018-05-15T01:29:17.905Z,13.41
2018-05-15T01:30:19.797Z,13.41
2018-05-15T01:31:21.177Z,13.32
2018-05-15T01:32:22.574Z,13.38
2018-05-15T01:33:23.957Z,13.44
2018-05-15T01:34:25.340Z,13.43
2018-05-15T01:35:26.735Z,13.35
2018-05-15T01:36:28.849Z,13.39
2018-05-15T01:37:30.230Z,13.36
2018-05-15T01:38:31.612Z,13.28
2018-05-15T01:39:33.001Z,13.38
2018-05-15T01:40:34.397Z,13.36
2018-05-15T01:41:35.767Z,13.39
2018-05-15T01:42:37.173Z,13.48
2018-05-15T01:43:38.564Z,13.46
2018-05-15T01:44:39.945Z,13.38
2018-05-15T01:45:41.329Z,13.36
2018-05-15T01:46:42.717Z,13.35
2018-05-15T01:47:44.123Z,13.38
2018-05-15T01:48:45.486Z,13.38
2018-05-15T01:49:46.859Z,13.41
2018-05-15T01:50:48.252Z,13.36
2018-05-15T01:51:49.635Z,13.35
2018-05-15T01:52:51.015Z,13.41
2018-05-15T01:53:52.401Z,13.32
2018-05-15T01:54:53.793Z,13.32
2018-05-15T01:55:55.163Z,13.35
2018-05-15T01:56:56.553Z,13.29
2018-05-15T01:57:57.973Z,13.24
2018-05-15T01:58:59.351Z,13.31
2018-05-15T02:00:00.738Z,13.31
2018-05-15T02:01:02.127Z,13.32
2018-05-15T02:02:03.500Z,13.29
2018-05-15T02:03:04.892Z,13.21
2018-05-15T02:04:06.285Z,13.31
2018-05-15T02:05:07.656Z,13.24
2018-05-15T02:06:09.037Z,13.25
2018-05-15T02:07:10.419Z,13.22
2018-05-15T02:08:11.808Z,13.19
2018-05-15T02:09:13.189Z,13.17
2018-05-15T02:10:14.591Z,13.14
2018-05-15T02:11:15.967Z,13.10
2018-05-15T02:12:17.374Z,13.16
2018-05-15T02:13:18.743Z,13.16
2018-05-15T02:14:20.118Z,13.16
2018-05-15T02:15:21.512Z,13.10
2018-05-15T02:16:22.910Z,13.04
2018-05-15T02:17:24.306Z,13.04
2018-05-15T02:18:26.541Z,13.06
2018-05-15T02:19:27.952Z,13.04
2018-05-15T02:20:29.351Z,12.98
2018-05-15T02:21:30.739Z,12.94
2018-05-15T02:22:32.127Z,12.96
2018-05-15T02:23:33.528Z,12.95
2018-05-15T02:24:34.950Z,12.87
2018-05-15T02:25:36.335Z,12.92
2018-05-15T02:26:37.712Z,12.92
2018-05-15T02:27:39.120Z,12.88
2018-05-15T02:28:40.505Z,12.88
2018-05-15T02:29:41.889Z,12.81
2018-05-15T02:30:43.261Z,12.76
2018-05-15T02:31:44.654Z,12.77
2018-05-15T02:32:46.061Z,12.80
2018-05-15T02:33:48.073Z,12.84
2018-05-15T02:34:48.785Z,12.79
2018-05-15T02:35:50.181Z,12.79
2018-05-15T02:36:51.584Z,12.79
2018-05-15T02:37:52.972Z,12.69
2018-05-15T02:38:54.372Z,12.62
2018-05-15T02:39:55.768Z,12.77
2018-05-15T02:40:57.156Z,12.71
2018-05-15T02:41:58.548Z,12.63
2018-05-15T02:42:59.942Z,12.62
2018-05-15T02:44:01.321Z,12.59
2018-05-15T02:45:02.728Z,12.62
2018-05-15T02:46:04.109Z,12.63
2018-05-15T02:47:05.494Z,12.59
2018-05-15T02:48:06.939Z,12.59
2018-05-15T02:49:08.269Z,12.62
2018-05-15T02:50:10.570Z,12.59
2018-05-15T02:51:11.958Z,12.59
2018-05-15T02:52:13.364Z,12.54
2018-05-15T02:53:14.748Z,12.59
2018-05-15T02:54:16.129Z,12.52
2018-05-15T02:55:17.521Z,12.58
2018-05-15T02:56:18.915Z,12.58
2018-05-15T02:57:20.307Z,12.55
2018-05-15T02:58:21.701Z,12.58
2018-05-15T02:59:23.076Z,12.59
2018-05-15T03:00:24.471Z,12.52
2018-05-15T03:01:25.864Z,12.58
2018-05-15T03:02:27.241Z,12.49
2018-05-15T03:03:29.384Z,12.43
2018-05-15T03:04:30.772Z,12.43
2018-05-15T03:05:32.152Z,12.48
2018-05-15T03:06:33.537Z,12.46
2018-05-15T03:07:34.945Z,12.52
2018-05-15T03:08:36.308Z,12.44
2018-05-15T03:09:37.689Z,12.48
2018-05-15T03:10:39.051Z,12.49
2018-05-15T03:11:40.490Z,12.49
2018-05-15T03:12:41.819Z,12.44
2018-05-15T03:13:43.200Z,12.46
2018-05-15T03:14:44.599Z,12.52
2018-05-15T03:15:45.990Z,12.46
2018-05-15T03:16:47.366Z,12.48
2018-05-15T03:17:48.763Z,12.48
2018-05-15T03:18:50.144Z,12.44
2018-05-15T03:19:51.529Z,12.52
2018-05-15T03:20:52.906Z,12.51
2018-05-15T03:21:54.301Z,12.48
2018-05-15T03:22:55.687Z,12.46
2018-05-15T03:23:57.090Z,12.40
2018-05-15T03:24:58.477Z,12.40
2018-05-15T03:25:59.867Z,12.48
2018-05-15T03:27:01.251Z,12.40
2018-05-15T03:28:02.643Z,12.44
2018-05-15T03:29:04.035Z,12.48
2018-05-15T03:30:05.428Z,12.44
2018-05-15T03:31:06.824Z,12.43
2018-05-15T03:32:08.206Z,12.46
2018-05-15T03:33:09.596Z,12.52
2018-05-15T03:34:10.984Z,12.44
2018-05-15T03:35:12.390Z,12.48
2018-05-15T03:36:13.771Z,12.43
2018-05-15T03:37:15.174Z,12.44
2018-05-15T03:38:16.575Z,12.44
2018-05-15T03:39:17.961Z,12.44
2018-05-15T03:40:19.354Z,12.43
2018-05-15T03:41:20.738Z,12.44
2018-05-15T03:42:22.120Z,12.58
2018-05-15T03:43:23.496Z,12.56
2018-05-15T03:44:24.896Z,12.56
2018-05-15T03:45:26.276Z,12.55
2018-05-15T03:46:27.668Z,12.55
2018-05-15T03:47:29.053Z,12.59
2018-05-15T03:48:30.455Z,12.61
2018-05-15T03:49:31.839Z,12.62
2018-05-15T03:50:33.233Z,12.61
2018-05-15T03:51:34.617Z,12.67
2018-05-15T03:52:36.014Z,12.62
2018-05-15T03:53:37.401Z,12.56
2018-05-15T03:54:38.794Z,12.71
2018-05-15T03:55:40.182Z,12.70
2018-05-15T03:56:41.587Z,12.84
2018-05-15T03:57:42.971Z,12.84
2018-05-15T03:58:44.362Z,12.76
2018-05-15T03:59:45.752Z,12.76
2018-05-15T04:00:47.132Z,12.77
2018-05-15T04:01:48.513Z,12.85
2018-05-15T04:02:49.909Z,12.89
2018-05-15T04:03:51.297Z,12.94
2018-05-15T04:04:52.685Z,12.96
2018-05-15T04:05:54.067Z,12.98
2018-05-15T04:06:55.452Z,12.95
2018-05-15T04:07:56.842Z,13.01
2018-05-15T04:08:58.230Z,13.01
2018-05-15T04:09:59.622Z,12.96
2018-05-15T04:11:01.160Z,13.03
2018-05-15T04:12:02.355Z,13.06
2018-05-15T04:13:03.737Z,13.17
2018-05-15T04:14:05.123Z,13.12
2018-05-15T04:15:06.521Z,13.14
2018-05-15T04:16:07.911Z,13.21
2018-05-15T04:17:09.291Z,13.27
2018-05-15T04:18:10.683Z,13.36
2018-05-15T04:19:12.072Z,13.35
2018-05-15T04:20:13.475Z,13.43
2018-05-15T04:21:14.876Z,13.43
2018-05-15T04:22:16.276Z,13.57
2018-05-15T04:23:17.928Z,13.61
2018-05-15T04:24:19.302Z,13.63
2018-05-15T04:25:20.689Z,13.80
2018-05-15T04:26:22.083Z,13.84
2018-05-15T04:27:23.468Z,13.96
2018-05-15T04:28:24.878Z,14.08
2018-05-15T04:29:26.246Z,14.19
2018-05-15T04:30:27.634Z,14.29
2018-05-15T04:31:29.022Z,14.57
2018-05-15T04:32:30.408Z,14.79
2018-05-15T04:33:31.804Z,15.04
2018-05-15T04:34:33.192Z,15.38
2018-05-15T04:35:34.570Z,15.76
2018-05-15T04:36:35.962Z,16.03
2018-05-15T04:37:37.354Z,16.33
2018-05-15T04:38:38.744Z,16.55
2018-05-15T04:39:40.143Z,16.87
2018-05-15T04:40:41.525Z,17.05
2018-05-15T04:41:42.923Z,17.20
2018-05-15T04:42:44.308Z,17.35
2018-05-15T04:43:45.817Z,17.47
2018-05-15T04:44:47.098Z,17.51
2018-05-15T04:45:48.491Z,17.47
2018-05-15T04:46:49.887Z,17.36
2018-05-15T04:47:51.266Z,17.27
2018-05-15T04:48:52.690Z,17.22
2018-05-15T04:49:54.075Z,17.20
2018-05-15T04:50:55.471Z,17.33
2018-05-15T04:51:56.859Z,17.38
2018-05-15T04:52:58.253Z,17.57
2018-05-15T04:54:00.300Z,17.66
2018-05-15T04:55:01.710Z,17.81
2018-05-15T04:56:03.102Z,17.99
2018-05-15T04:57:05.060Z,18.09
2018-05-15T04:58:06.455Z,18.20
2018-05-15T04:59:08.381Z,18.05
2018-05-15T05:00:09.772Z,17.96
2018-05-15T05:01:11.174Z,17.77
2018-05-15T05:02:12.566Z,17.63
2018-05-15T05:03:13.962Z,17.47
2018-05-15T05:04:15.370Z,17.32
2018-05-15T05:05:16.772Z,17.28
2018-05-15T05:06:18.182Z,17.27
2018-05-15T05:07:19.573Z,17.05
2018-05-15T05:08:20.969Z,16.96
2018-05-15T05:09:22.370Z,16.91
2018-05-15T05:10:23.773Z,16.98
2018-05-15T05:11:25.174Z,16.88
2018-05-15T05:12:26.570Z,16.85
2018-05-15T05:13:27.960Z,16.82
2018-05-15T05:14:29.363Z,16.82
2018-05-15T05:15:30.771Z,16.81
2018-05-15T05:16:32.170Z,16.69
2018-05-15T05:17:33.598Z,16.75
2018-05-15T05:18:34.987Z,16.72
2018-05-15T05:19:36.467Z,16.80
2018-05-15T05:20:37.868Z,16.73
2018-05-15T05:21:39.269Z,16.73
2018-05-15T05:22:40.658Z,16.70
2018-05-15T05:23:42.076Z,16.70
2018-05-15T05:24:43.463Z,16.57
2018-05-15T05:25:44.860Z,16.55
2018-05-15T05:26:46.247Z,16.45
2018-05-15T05:27:47.642Z,16.44
2018-05-15T05:28:49.052Z,16.54
2018-05-15T05:29:50.443Z,16.60
2018-05-15T05:30:51.862Z,16.75
2018-05-15T05:31:53.259Z,16.98
2018-05-15T05:32:54.670Z,16.95
2018-05-15T05:33:56.069Z,17.03
2018-05-15T05:34:57.464Z,16.96
2018-05-15T05:35:58.856Z,16.95
2018-05-15T05:37:00.251Z,16.88
2018-05-15T05:38:01.673Z,16.78
2018-05-15T05:39:03.073Z,16.75
2018-05-15T05:40:04.490Z,16.84
2018-05-15T05:41:05.895Z,16.90
2018-05-15T05:42:07.300Z,16.84
2018-05-15T05:43:08.699Z,16.96
2018-05-15T05:44:10.084Z,16.91
2018-05-15T05:45:11.485Z,16.98
2018-05-15T05:46:12.843Z,17.05
2018-05-15T05:47:14.245Z,17.02
2018-05-15T05:48:15.639Z,17.14
2018-05-15T05:49:17.040Z,17.28
2018-05-15T05:50:18.441Z,17.58
2018-05-15T05:51:19.833Z,17.68
2018-05-15T05:52:21.217Z,17.95
2018-05-15T05:53:22.617Z,18.07
2018-05-15T05:54:24.006Z,18.19
2018-05-15T05:55:25.409Z,18.17
2018-05-15T05:56:26.797Z,18.20
2018-05-15T05:57:28.189Z,18.20
2018-05-15T05:58:29.612Z,18.17
2018-05-15T05:59:31.038Z,18.19
2018-05-15T06:00:32.438Z,18.26
2018-05-15T06:01:33.816Z,18.29
2018-05-15T06:02:35.219Z,18.34
2018-05-15T06:03:36.660Z,18.41
2018-05-15T06:04:38.067Z,18.56
2018-05-15T06:05:39.460Z,18.75
2018-05-15T06:06:40.853Z,18.84
2018-05-15T06:07:42.250Z,18.90
2018-05-15T06:08:43.647Z,19.05
2018-05-15T06:09:45.039Z,19.30
2018-05-15T06:10:46.442Z,19.72
2018-05-15T06:11:47.837Z,20.16
2018-05-15T06:12:49.234Z,20.51
2018-05-15T06:13:50.633Z,20.75
2018-05-15T06:14:52.026Z,21.26
2018-05-15T06:15:53.438Z,22.05
2018-05-15T06:16:54.819Z,22.93
2018-05-15T06:17:56.225Z,23.63
2018-05-15T06:18:57.611Z,24.08
2018-05-15T06:19:59.014Z,24.66
2018-05-15T06:21:00.503Z,25.14
2018-05-15T06:22:01.780Z,25.42
2018-05-15T06:23:03.184Z,25.82
2018-05-15T06:24:04.600Z,26.00
2018-05-15T06:25:06.004Z,26.00
2018-05-15T06:26:07.406Z,26.23
2018-05-15T06:27:08.815Z,26.36
2018-05-15T06:28:10.213Z,26.71
2018-05-15T06:29:11.626Z,27.06
2018-05-15T06:30:13.019Z,27.78
2018-05-15T06:31:14.435Z,28.54
2018-05-15T06:32:15.939Z,29.26
2018-05-15T06:33:17.264Z,29.95
2018-05-15T06:34:18.664Z,30.60
2018-05-15T06:35:20.083Z,30.98
2018-05-15T06:36:21.483Z,31.37
2018-05-15T06:37:22.887Z,31.35
2018-05-15T06:38:24.312Z,31.52
2018-05-15T06:39:25.724Z,31.59
2018-05-15T06:40:27.124Z,31.72
2018-05-15T06:41:28.542Z,31.67
2018-05-15T06:42:29.941Z,31.32
2018-05-15T06:43:31.357Z,30.90
2018-05-15T06:44:32.777Z,30.67
2018-05-15T06:45:34.194Z,30.40
2018-05-15T06:46:35.620Z,30.22
2018-05-15T06:47:37.047Z,29.95
2018-05-15T06:48:38.446Z,29.41
2018-05-15T06:49:39.852Z,28.87
2018-05-15T06:50:41.274Z,28.23
2018-05-15T06:51:42.680Z,28.02
2018-05-15T06:52:44.085Z,27.68
2018-05-15T06:53:45.487Z,27.55
2018-05-15T06:54:46.901Z,27.39
2018-05-15T06:55:48.299Z,27.13
2018-05-15T06:56:49.708Z,26.90
2018-05-15T06:57:51.124Z,26.59
2018-05-15T06:58:52.540Z,26.32
2018-05-15T06:59:53.935Z,26.06
2018-05-15T07:00:55.349Z,25.85
2018-05-15T07:01:56.746Z,25.51
2018-05-15T07:02:58.163Z,25.34
2018-05-15T07:04:00.357Z,25.16
2018-05-15T07:05:01.771Z,25.09
2018-05-15T07:06:03.173Z,24.74
2018-05-15T07:07:04.580Z,24.52
2018-05-15T07:08:05.992Z,24.46
2018-05-15T07:09:07.384Z,24.60
2018-05-15T07:10:08.797Z,24.84
2018-05-15T07:11:10.195Z,24.94
2018-05-15T07:12:11.600Z,24.99
2018-05-15T07:13:13.010Z,25.16
2018-05-15T07:14:14.402Z,25.41
2018-05-15T07:15:15.816Z,25.44
2018-05-15T07:16:17.215Z,25.57
2018-05-15T07:17:18.629Z,25.51
2018-05-15T07:18:20.024Z,25.42
2018-05-15T07:19:21.450Z,25.66
2018-05-15T07:20:22.875Z,25.71
2018-05-15T07:21:24.278Z,25.93
2018-05-15T07:22:25.679Z,26.13
2018-05-15T07:23:27.085Z,26.69
2018-05-15T07:24:29.369Z,27.09
2018-05-15T07:25:30.782Z,27.43
2018-05-15T07:26:32.199Z,27.83
2018-05-15T07:27:33.603Z,28.15
2018-05-15T07:28:35.001Z,28.61
2018-05-15T07:29:36.435Z,28.77
2018-05-15T07:30:37.824Z,28.88
2018-05-15T07:31:39.248Z,28.80
2018-05-15T07:32:40.648Z,28.72
2018-05-15T07:33:42.053Z,28.52
2018-05-15T07:34:43.470Z,28.48
2018-05-15T07:35:45.379Z,28.50
2018-05-15T07:36:46.780Z,28.80
2018-05-15T07:37:48.198Z,29.08
2018-05-15T07:38:49.622Z,29.20
2018-05-15T07:39:51.022Z,29.18
2018-05-15T07:40:52.433Z,29.15
2018-05-15T07:41:53.858Z,29.30
2018-05-15T07:42:55.266Z,29.37
2018-05-15T07:43:56.680Z,29.35
2018-05-15T07:44:58.068Z,29.33
2018-05-15T07:45:59.479Z,29.62
2018-05-15T07:47:00.950Z,29.14
2018-05-15T07:48:02.349Z,29.02
2018-05-15T07:49:03.751Z,28.79
2018-05-15T07:50:05.169Z,28.45
2018-05-15T07:51:06.580Z,28.74
2018-05-15T07:52:08.746Z,28.77
2018-05-15T07:53:10.163Z,29.05
2018-05-15T07:54:11.572Z,29.23
2018-05-15T07:55:12.990Z,29.52
2018-05-15T07:56:14.390Z,29.74
2018-05-15T07:57:15.837Z,29.76
2018-05-15T07:58:17.194Z,29.66
2018-05-15T07:59:18.595Z,30.13
2018-05-15T08:00:20.014Z,30.63
2018-05-15T08:01:21.405Z,31.12
2018-05-15T08:02:22.818Z,31.68
2018-05-15T08:03:24.225Z,31.99
2018-05-15T08:04:25.702Z,32.28
2018-05-15T08:05:27.001Z,32.43
2018-05-15T08:06:28.411Z,32.22
2018-05-15T08:07:29.827Z,31.92
2018-05-15T08:08:31.223Z,31.56
2018-05-15T08:09:32.645Z,31.34
2018-05-15T08:10:34.047Z,31.23
2018-05-15T08:11:35.444Z,31.05
2018-05-15T08:12:36.857Z,30.93
2018-05-15T08:13:38.280Z,30.73
2018-05-15T08:14:39.688Z,30.37
2018-05-15T08:15:41.093Z,30.32
2018-05-15T08:16:42.503Z,30.22
2018-05-15T08:17:43.908Z,30.13
2018-05-15T08:18:45.313Z,29.97
2018-05-15T08:19:46.747Z,29.64
2018-05-15T08:20:48.156Z,29.33
2018-05-15T08:21:49.573Z,29.02
2018-05-15T08:22:50.978Z,28.87
2018-05-15T08:23:52.406Z,28.82
2018-05-15T08:24:53.812Z,28.85
2018-05-15T08:25:55.949Z,28.80
2018-05-15T08:26:57.348Z,28.85
2018-05-15T08:27:58.754Z,29.02
2018-05-15T08:29:00.213Z,28.80
2018-05-15T08:30:01.612Z,28.85
2018-05-15T08:31:03.032Z,28.97
2018-05-15T08:32:04.450Z,29.17
2018-05-15T08:33:05.870Z,29.49
2018-05-15T08:34:07.262Z,29.82
2018-05-15T08:35:08.685Z,30.04
2018-05-15T08:36:10.086Z,30.23
2018-05-15T08:37:11.490Z,30.25
2018-05-15T08:38:12.908Z,30.37
2018-05-15T08:39:14.324Z,30.37
2018-05-15T08:40:15.731Z,30.54
2018-05-15T08:41:17.128Z,30.61
2018-05-15T08:42:18.545Z,30.63
2018-05-15T08:43:19.964Z,30.45
2018-05-15T08:44:21.379Z,30.11
2018-05-15T08:45:22.835Z,30.10
2018-05-15T08:46:24.199Z,30.22
2018-05-15T08:47:25.610Z,30.30
2018-05-15T08:48:27.021Z,30.73
2018-05-15T08:49:28.425Z,31.01
2018-05-15T08:50:29.871Z,31.57
2018-05-15T08:51:31.353Z,32.12
2018-05-15T08:52:32.687Z,32.78
2018-05-15T08:53:34.094Z,33.18
2018-05-15T08:54:35.509Z,33.56
2018-05-15T08:55:36.917Z,33.94
2018-05-15T08:56:38.323Z,34.56
2018-05-15T08:57:39.742Z,34.87
2018-05-15T08:58:41.148Z,35.22
2018-05-15T08:59:42.560Z,35.34
2018-05-15T09:00:43.957Z,35.36
2018-05-15T09:01:45.381Z,35.32
2018-05-15T09:02:46.796Z,35.31
2018-05-15T09:03:48.201Z,35.37
2018-05-15T09:04:49.624Z,35.64
2018-05-15T09:05:51.037Z,35.85
2018-05-15T09:06:52.436Z,36.19
2018-05-15T09:07:53.863Z,36.02
2018-05-15T09:08:55.266Z,36.06
2018-05-15T09:09:56.684Z,36.12
2018-05-15T09:10:58.753Z,36.38
2018-05-15T09:11:59.456Z,36.72
2018-05-15T09:13:00.862Z,37.06
2018-05-15T09:14:02.274Z,37.24
2018-05-15T09:15:03.697Z,37.62
2018-05-15T09:16:05.109Z,37.46
2018-05-15T09:17:06.522Z,37.46
2018-05-15T09:18:07.923Z,37.33
2018-05-15T09:19:09.352Z,37.56
2018-05-15T09:20:10.753Z,37.56
2018-05-15T09:21:12.178Z,37.84
2018-05-15T09:22:13.589Z,37.60
2018-05-15T09:23:14.999Z,37.87
2018-05-15T09:24:16.413Z,37.80
2018-05-15T09:25:17.823Z,37.96
2018-05-15T09:26:19.235Z,37.77
2018-05-15T09:27:20.665Z,37.75
2018-05-15T09:28:22.088Z,37.69
2018-05-15T09:29:23.529Z,37.60
2018-05-15T09:30:24.947Z,37.60
2018-05-15T09:31:26.349Z,37.09
2018-05-15T09:32:28.633Z,37.06
2018-05-15T09:33:30.051Z,36.93
2018-05-15T09:34:31.468Z,36.69
2018-05-15T09:35:32.876Z,36.16
2018-05-15T09:36:34.302Z,36.25
2018-05-15T09:37:35.706Z,36.82
2018-05-15T09:38:37.129Z,37.02
2018-05-15T09:39:38.564Z,36.82
2018-05-15T09:40:39.964Z,36.67
2018-05-15T09:41:41.386Z,36.44
2018-05-15T09:42:42.817Z,36.78
2018-05-15T09:43:44.236Z,37.24
2018-05-15T09:44:45.658Z,37.39
2018-05-15T09:45:47.062Z,37.34
2018-05-15T09:46:48.474Z,36.48
2018-05-15T09:47:49.905Z,35.42
2018-05-15T09:48:51.330Z,34.94
2018-05-15T09:49:52.737Z,34.60
2018-05-15T09:50:54.156Z,34.53
2018-05-15T09:51:55.577Z,34.42
2018-05-15T09:52:57.012Z,34.78
2018-05-15T09:53:58.437Z,35.03
2018-05-15T09:54:59.893Z,35.18
2018-05-15T09:56:01.308Z,35.21
2018-05-15T09:57:02.716Z,35.37
2018-05-15T09:58:04.929Z,35.52
2018-05-15T09:59:06.361Z,35.64
2018-05-15T10:00:07.783Z,35.83
2018-05-15T10:01:09.193Z,35.64
2018-05-15T10:02:10.590Z,35.34
2018-05-15T10:03:12.016Z,35.27
2018-05-15T10:04:13.408Z,34.86
2018-05-15T10:05:14.838Z,34.40
2018-05-15T10:06:16.260Z,33.97
2018-05-15T10:07:17.662Z,33.44
2018-05-15T10:08:19.069Z,32.95
2018-05-15T10:09:20.484Z,32.41
2018-05-15T10:10:21.884Z,32.02
2018-05-15T10:11:23.296Z,31.65
2018-05-15T10:12:24.720Z,31.71
2018-05-15T10:13:26.114Z,31.22
2018-05-15T10:14:27.523Z,30.60
2018-05-15T10:15:28.936Z,30.10
2018-05-15T10:16:30.336Z,29.74
2018-05-15T10:17:31.735Z,29.62
2018-05-15T10:18:33.141Z,29.49
2018-05-15T10:19:34.540Z,29.44
2018-05-15T10:20:35.948Z,29.23
2018-05-15T10:21:37.361Z,29.14
2018-05-15T10:22:38.767Z,28.80
2018-05-15T10:23:40.167Z,28.61
2018-05-15T10:24:41.562Z,28.52
2018-05-15T10:25:42.972Z,28.58
2018-05-15T10:26:44.369Z,28.52
2018-05-15T10:27:45.770Z,28.43
2018-05-15T10:28:47.192Z,28.33
2018-05-15T10:29:48.643Z,28.35
2018-05-15T10:30:50.775Z,28.46
2018-05-15T10:31:52.175Z,28.33
2018-05-15T10:32:53.586Z,28.28
2018-05-15T10:33:55.016Z,28.08
2018-05-15T10:34:56.410Z,28.08
2018-05-15T10:35:57.833Z,27.95
2018-05-15T10:36:59.268Z,27.78
2018-05-15T10:38:01.312Z,27.77
2018-05-15T10:39:01.981Z,27.62
2018-05-15T10:40:03.390Z,27.38
2018-05-15T10:41:04.794Z,27.40
2018-05-15T10:42:06.199Z,27.42
2018-05-15T10:43:07.610Z,27.38
2018-05-15T10:44:09.013Z,27.39
2018-05-15T10:45:10.423Z,27.38
2018-05-15T10:46:11.835Z,27.38
2018-05-15T10:47:13.229Z,27.40
2018-05-15T10:48:15.347Z,27.38
2018-05-15T10:49:16.750Z,27.42
2018-05-15T10:50:18.155Z,27.46
2018-05-15T10:51:19.558Z,27.40
2018-05-15T10:52:20.953Z,27.53
2018-05-15T10:53:22.360Z,27.46
2018-05-15T10:54:23.761Z,27.65
2018-05-15T10:55:25.176Z,27.63
2018-05-15T10:56:26.572Z,27.58
2018-05-15T10:57:27.976Z,27.46
2018-05-15T10:58:29.378Z,27.24
2018-05-15T10:59:30.855Z,26.98
2018-05-15T11:00:32.214Z,27.08
2018-05-15T11:01:33.624Z,26.98
2018-05-15T11:02:35.027Z,26.93
2018-05-15T11:03:36.441Z,26.94
2018-05-15T11:04:37.851Z,27.08
2018-05-15T11:05:39.251Z,27.11
2018-05-15T11:06:40.660Z,27.30
2018-05-15T11:07:42.070Z,27.66
2018-05-15T11:08:43.470Z,28.05
2018-05-15T11:09:44.887Z,28.32
2018-05-15T11:10:46.290Z,28.57
2018-05-15T11:11:47.713Z,28.89
2018-05-15T11:12:49.168Z,29.00
2018-05-15T11:13:50.569Z,29.15
2018-05-15T11:14:51.993Z,29.21
2018-05-15T11:15:53.389Z,29.49
2018-05-15T11:16:54.795Z,29.63
2018-05-15T11:17:56.203Z,29.52
2018-05-15T11:18:57.606Z,29.37
2018-05-15T11:19:59.009Z,29.29
2018-05-15T11:21:00.407Z,29.36
2018-05-15T11:22:01.824Z,29.39
2018-05-15T11:23:03.232Z,29.71
2018-05-15T11:24:04.650Z,30.03
2018-05-15T11:25:06.051Z,30.25
2018-05-15T11:26:07.460Z,30.38
2018-05-15T11:27:08.882Z,30.59
2018-05-15T11:28:10.301Z,30.75
2018-05-15T11:29:11.683Z,30.85
2018-05-15T11:30:13.104Z,30.97
2018-05-15T11:31:14.508Z,31.30
2018-05-15T11:32:15.918Z,31.57
2018-05-15T11:33:17.325Z,31.72
2018-05-15T11:34:18.728Z,31.99
2018-05-15T11:35:20.133Z,32.29
2018-05-15T11:36:21.555Z,32.50
2018-05-15T11:37:22.961Z,32.61
2018-05-15T11:38:24.367Z,32.31
2018-05-15T11:39:25.764Z,31.91
2018-05-15T11:40:27.202Z,31.64
2018-05-15T11:41:28.639Z,31.57
2018-05-15T11:42:30.019Z,31.60
2018-05-15T11:43:31.426Z,31.84
2018-05-15T11:44:32.823Z,32.22
2018-05-15T11:45:34.222Z,32.41
2018-05-15T11:46:36.415Z,32.28
2018-05-15T11:47:37.967Z,32.36
2018-05-15T11:48:39.588Z,32.13
2018-05-15T11:49:41.780Z,31.94
2018-05-15T11:50:42.627Z,31.71
2018-05-15T11:51:43.986Z,31.50
2018-05-15T11:52:44.993Z,31.47
2018-05-15T11:53:46.096Z,31.12
2018-05-15T11:54:47.493Z,31.04
2018-05-15T11:55:48.930Z,31.16
2018-05-15T11:56:50.318Z,31.28
2018-05-15T11:57:51.761Z,31.19
2018-05-15T11:58:53.136Z,31.31
2018-05-15T11:59:54.572Z,31.69
2018-05-15T12:00:55.944Z,32.03
2018-05-15T12:01:57.346Z,32.28
2018-05-15T12:02:58.748Z,32.59
2018-05-15T12:04:00.234Z,32.39
2018-05-15T12:05:01.565Z,32.43
2018-05-15T12:06:02.974Z,32.47
2018-05-15T12:07:04.389Z,32.51
2018-05-15T12:08:05.854Z,32.73
2018-05-15T12:09:07.205Z,32.56
2018-05-15T12:10:08.607Z,32.65
2018-05-15T12:11:10.008Z,33.00
2018-05-15T12:12:11.411Z,32.98
2018-05-15T12:13:12.826Z,32.78
2018-05-15T12:14:14.237Z,32.96
2018-05-15T12:15:15.657Z,33.00
2018-05-15T12:16:17.068Z,32.72
2018-05-15T12:17:18.481Z,32.58
2018-05-15T12:18:19.916Z,32.31
2018-05-15T12:19:21.302Z,31.78
2018-05-15T12:20:22.789Z,31.46
2018-05-15T12:21:24.078Z,31.18
2018-05-15T12:22:26.236Z,30.90
2018-05-15T12:23:27.653Z,30.66
2018-05-15T12:24:29.092Z,30.18
2018-05-15T12:25:30.494Z,29.82
2018-05-15T12:26:31.914Z,29.47
2018-05-15T12:27:33.300Z,29.07
2018-05-15T12:28:34.709Z,28.79
2018-05-15T12:29:36.107Z,28.73
2018-05-15T12:30:37.524Z,28.65
2018-05-15T12:31:38.922Z,28.54
2018-05-15T12:32:40.344Z,28.50
2018-05-15T12:33:41.740Z,28.43
2018-05-15T12:34:43.154Z,28.60
2018-05-15T12:35:44.588Z,28.72
2018-05-15T12:36:45.975Z,28.52
2018-05-15T12:37:47.377Z,28.76
2018-05-15T12:38:48.791Z,28.65
2018-05-15T12:39:50.190Z,28.54
2018-05-15T12:40:51.594Z,28.30
2018-05-15T12:41:53.049Z,28.24
2018-05-15T12:42:54.416Z,28.08
2018-05-15T12:43:55.808Z,28.01
2018-05-15T12:44:57.217Z,27.78
2018-05-15T12:45:58.616Z,27.61
2018-05-15T12:47:00.017Z,27.49
2018-05-15T12:48:01.469Z,27.34
2018-05-15T12:49:02.824Z,27.35
2018-05-15T12:50:04.238Z,27.46
2018-05-15T12:51:05.638Z,27.68
2018-05-15T12:52:07.042Z,27.76
2018-05-15T12:53:08.438Z,27.65
2018-05-15T12:54:10.654Z,27.46
2018-05-15T12:55:11.976Z,27.42
2018-05-15T12:56:13.382Z,27.21
2018-05-15T12:57:14.780Z,26.93
2018-05-15T12:58:16.182Z,26.78
2018-05-15T12:59:17.586Z,26.59
2018-05-15T13:00:18.994Z,26.38
2018-05-15T13:01:20.412Z,26.27
2018-05-15T13:02:21.827Z,26.17
2018-05-15T13:03:23.227Z,26.04
2018-05-15T13:04:24.633Z,25.93
2018-05-15T13:05:26.037Z,25.71
2018-05-15T13:06:27.431Z,25.69
2018-05-15T13:07:28.914Z,25.46
2018-05-15T13:08:30.187Z,25.57
2018-05-15T13:09:31.585Z,25.48
2018-05-15T13:10:32.940Z,25.39